Terminal Aerodrome Forecast
Issued by NWS Twin Cities, MN

Home | Current Version | Previous Version | Text Only | Print | Product List | Glossary On
Versions: 1 2 3 4 5 6 7 8 9 10 11 12 13 14 15 16 17
000
FTUS43 KMPX 211215 CCA
TAFSTC
TAF COR
KSTC 211215Z 2112/2212 10003KT P6SM FEW250
      TEMPO 2112/2113 4SM BR
     FM211700 13007KT P6SM VCSH SCT040 BKN110
     FM212200 13009KT P6SM BKN050
     FM220000 14010KT P6SM VCTS BKN050CB OVC100
      TEMPO 2201/2203 5SM -TSRA BKN040CB
     FM220500 04007KT P6SM SCT025 BKN060=

USA.gov is the U.S. government's official web portal to all federal, state and local government web resources and services.